createdAt,value
2019-02-07T00:01:52.057Z,127.90
2019-02-07T00:04:18.942Z,111.10
2019-02-07T00:06:45.686Z,121.67
2019-02-07T00:09:12.412Z,138.53
2019-02-07T00:11:39.122Z,116.97
2019-02-07T00:14:06.005Z,137.73
2019-02-07T00:16:33.505Z,118.20
2019-02-07T00:19:00.212Z,142.33
2019-02-07T00:21:27.046Z,114.80
2019-02-07T00:23:53.909Z,119.80
2019-02-07T00:26:20.715Z,124.80
2019-02-07T00:28:47.564Z,103.80
2019-02-07T00:31:14.599Z,97.93
2019-02-07T00:33:41.340Z,112.43
2019-02-07T00:36:08.092Z,118.80
2019-02-07T00:38:34.919Z,114.50
2019-02-07T00:41:02.134Z,111.73
2019-02-07T00:43:28.928Z,113.77
2019-02-07T00:45:55.651Z,119.40
2019-02-07T00:48:22.400Z,111.80
2019-02-07T00:50:49.541Z,125.77
2019-02-07T00:53:16.699Z,128.93
2019-02-07T00:55:43.427Z,123.73
2019-02-07T00:58:10.277Z,145.87
2019-02-07T01:00:37.009Z,110.37
2019-02-07T01:03:03.760Z,121.10
2019-02-07T01:05:30.597Z,109.50
2019-02-07T01:07:57.850Z,178.23
2019-02-07T01:10:24.580Z,111.40
2019-02-07T01:12:51.328Z,107.87
2019-02-07T01:15:18.070Z,114.90
2019-02-07T01:17:44.847Z,101.63
2019-02-07T01:20:11.651Z,123.30
2019-02-07T01:22:38.377Z,120.03
2019-02-07T01:25:05.128Z,110.43
2019-02-07T01:27:32.163Z,103.83
2019-02-07T01:29:59.010Z,117.23
2019-02-07T01:32:25.747Z,104.27
2019-02-07T01:34:52.486Z,98.33
2019-02-07T01:37:19.338Z,107.23
2019-02-07T01:39:46.177Z,129.83
2019-02-07T01:42:13.010Z,120.47
2019-02-07T01:44:39.758Z,152.07
2019-02-07T01:47:06.694Z,120.50
2019-02-07T01:49:33.433Z,116.10
2019-02-07T01:52:00.180Z,105.10
2019-02-07T01:54:27.016Z,114.33
2019-02-07T01:56:53.866Z,102.53
2019-02-07T01:59:20.601Z,124.97
2019-02-07T02:01:47.445Z,147.37
2019-02-07T02:04:14.182Z,125.73
2019-02-07T02:06:41.026Z,114.73
2019-02-07T02:09:07.873Z,143.80
2019-02-07T02:11:34.599Z,117.03
2019-02-07T02:14:01.541Z,108.33
2019-02-07T02:16:28.177Z,111.80
2019-02-07T02:18:55.029Z,122.90
2019-02-07T02:21:21.721Z,110.03
2019-02-07T02:23:48.710Z,111.00
2019-02-07T02:26:15.441Z,134.07
2019-02-07T02:28:42.183Z,118.87
2019-02-07T02:31:09.037Z,120.33
2019-02-07T02:33:35.775Z,98.73
2019-02-07T02:36:02.518Z,117.27
2019-02-07T02:38:29.246Z,116.33
2019-02-07T02:40:55.991Z,106.63
2019-02-07T02:43:23.663Z,94.93
2019-02-07T02:45:50.380Z,112.97
2019-02-07T02:48:17.121Z,110.13
2019-02-07T02:50:43.858Z,116.03
2019-02-07T02:53:10.623Z,108.97
2019-02-07T02:55:37.453Z,125.47
2019-02-07T02:58:04.193Z,134.43
2019-02-07T03:00:30.927Z,117.47
2019-02-07T03:02:57.670Z,112.63
2019-02-07T03:05:24.398Z,129.37
2019-02-07T03:07:51.249Z,108.60
2019-02-07T03:10:17.948Z,116.10
2019-02-07T03:12:44.718Z,118.13
2019-02-07T03:15:11.469Z,141.33
2019-02-07T03:17:38.307Z,133.03
2019-02-07T03:20:05.550Z,129.00
2019-02-07T03:22:32.289Z,126.57
2019-02-07T03:24:59.099Z,104.33
2019-02-07T03:27:25.870Z,106.37
2019-02-07T03:29:52.624Z,106.37
2019-02-07T03:32:19.460Z,105.17
2019-02-07T03:34:46.197Z,137.73
2019-02-07T03:37:12.932Z,128.20
2019-02-07T03:39:40.089Z,103.63
2019-02-07T03:42:06.817Z,118.73
2019-02-07T03:44:33.866Z,119.63
2019-02-07T03:47:00.613Z,124.30
2019-02-07T03:49:27.465Z,162.23
2019-02-07T03:51:54.291Z,147.40
2019-02-07T03:54:21.024Z,112.83
2019-02-07T03:56:48.081Z,127.07
2019-02-07T03:59:14.862Z,146.77
2019-02-07T04:01:41.658Z,147.77
2019-02-07T04:04:08.396Z,120.93
2019-02-07T04:06:35.133Z,148.33
2019-02-07T04:09:02.189Z,123.17
2019-02-07T04:11:28.919Z,131.83
2019-02-07T04:13:55.674Z,127.60
2019-02-07T04:16:22.706Z,115.00
2019-02-07T04:18:49.446Z,133.03
2019-02-07T04:21:16.286Z,138.70
2019-02-07T04:23:43.023Z,114.77
2019-02-07T04:26:09.727Z,126.23
2019-02-07T04:28:36.511Z,133.30
2019-02-07T04:31:03.255Z,124.70
2019-02-07T04:33:30.499Z,132.70
2019-02-07T04:35:57.349Z,130.27
2019-02-07T04:38:24.072Z,132.30
2019-02-07T04:40:50.927Z,138.87
2019-02-07T04:43:17.666Z,138.80
2019-02-07T04:45:44.749Z,137.30
2019-02-07T04:48:11.546Z,139.80
2019-02-07T04:50:38.398Z,118.60
2019-02-07T04:53:05.335Z,145.30
2019-02-07T04:55:32.070Z,152.80
2019-02-07T04:57:58.913Z,117.00
2019-02-07T05:00:25.651Z,154.77
2019-02-07T05:02:52.420Z,122.47
2019-02-07T05:05:19.200Z,108.70
2019-02-07T05:07:45.980Z,126.23
2019-02-07T05:10:13.133Z,123.97
2019-02-07T05:12:39.866Z,112.07
2019-02-07T05:15:06.722Z,100.43
2019-02-07T05:17:33.441Z,122.07
2019-02-07T05:20:00.390Z,129.40
2019-02-07T05:22:27.231Z,113.73
2019-02-07T05:24:53.920Z,136.20
2019-02-07T05:27:20.711Z,120.30
2019-02-07T05:29:47.969Z,134.20
2019-02-07T05:32:14.821Z,142.57
2019-02-07T05:34:41.647Z,138.17
2019-02-07T05:37:08.395Z,186.30
2019-02-07T05:39:35.282Z,138.50
2019-02-07T05:42:02.076Z,115.90
2019-02-07T05:44:28.910Z,92.63
2019-02-07T05:46:56.088Z,115.30
2019-02-07T05:49:23.319Z,118.37
2019-02-07T05:51:50.042Z,139.50
2019-02-07T05:54:16.780Z,139.20
2019-02-07T05:56:43.531Z,115.60
2019-02-07T05:59:10.363Z,105.33
2019-02-07T06:01:37.100Z,118.80
2019-02-07T06:04:03.848Z,108.10
2019-02-07T06:06:30.580Z,116.00
2019-02-07T06:08:57.433Z,106.30
2019-02-07T06:11:24.262Z,95.77
2019-02-07T06:13:51.011Z,96.00
2019-02-07T06:16:17.741Z,105.47
2019-02-07T06:18:44.490Z,85.93
2019-02-07T06:21:11.219Z,90.73
2019-02-07T06:23:38.064Z,110.63
2019-02-07T06:26:05.321Z,81.63
2019-02-07T06:28:32.067Z,100.50
2019-02-07T06:30:58.904Z,104.43
2019-02-07T06:33:25.632Z,89.47
2019-02-07T06:35:52.473Z,88.90
2019-02-07T06:38:19.423Z,109.67
2019-02-07T06:40:46.341Z,86.33
2019-02-07T06:43:13.171Z,89.27
2019-02-07T06:45:40.157Z,94.97
2019-02-07T06:48:06.993Z,87.97
2019-02-07T06:50:33.739Z,91.50
2019-02-07T06:53:00.485Z,66.03
2019-02-07T06:55:27.321Z,66.83
2019-02-07T06:57:54.049Z,77.97
2019-02-07T07:00:20.903Z,80.30
2019-02-07T07:02:47.950Z,82.30
2019-02-07T07:05:14.690Z,98.60
2019-02-07T07:07:41.620Z,82.03
2019-02-07T07:10:08.368Z,73.07
2019-02-07T07:12:35.217Z,102.47
2019-02-07T07:15:01.956Z,90.87
2019-02-07T07:17:28.683Z,64.93
2019-02-07T07:19:55.421Z,71.33
2019-02-07T07:22:22.158Z,68.80
2019-02-07T07:24:49.523Z,102.53
2019-02-07T07:27:16.379Z,100.33
2019-02-07T07:29:43.196Z,87.93
2019-02-07T07:32:09.936Z,85.93
2019-02-07T07:34:36.673Z,76.40
2019-02-07T07:37:03.526Z,87.93
2019-02-07T07:39:30.545Z,84.83
2019-02-07T07:41:57.315Z,75.90
2019-02-07T07:44:24.156Z,87.50
2019-02-07T07:46:50.890Z,94.27
2019-02-07T07:49:17.727Z,99.53
2019-02-07T07:51:44.469Z,105.33
2019-02-07T07:54:11.211Z,95.90
2019-02-07T07:56:38.157Z,93.13
2019-02-07T07:59:04.891Z,109.23
2019-02-07T08:01:31.740Z,94.97
2019-02-07T08:03:58.486Z,90.30
2019-02-07T08:06:25.204Z,84.63
2019-02-07T08:08:51.951Z,80.23
2019-02-07T08:11:18.688Z,115.43
2019-02-07T08:13:45.534Z,89.00
2019-02-07T08:16:12.587Z,94.67
2019-02-07T08:18:39.311Z,97.47
2019-02-07T08:21:06.062Z,95.90
2019-02-07T08:23:32.907Z,76.57
2019-02-07T08:26:00.056Z,72.83
2019-02-07T08:28:26.838Z,76.13
2019-02-07T08:30:53.581Z,79.10
2019-02-07T08:33:20.891Z,84.13
2019-02-07T08:35:47.611Z,71.30
2019-02-07T08:38:14.458Z,81.37
2019-02-07T08:40:41.207Z,71.67
2019-02-07T08:43:08.051Z,93.30
2019-02-07T08:45:34.903Z,101.73
2019-02-07T08:48:03.931Z,82.83
2019-02-07T08:50:30.619Z,64.77
2019-02-07T08:52:57.318Z,70.80
2019-02-07T08:55:24.086Z,76.80
2019-02-07T08:57:50.837Z,73.63
2019-02-07T09:00:17.577Z,77.77
2019-02-07T09:02:51.616Z,70.40
2019-02-07T09:05:12.744Z,69.80
2019-02-07T09:07:39.525Z,60.60
2019-02-07T09:10:06.569Z,67.73
2019-02-07T09:12:33.314Z,66.80
2019-02-07T09:15:00.302Z,55.67
2019-02-07T09:17:27.107Z,71.10
2019-02-07T09:19:53.957Z,62.07
2019-02-07T09:22:23.691Z,74.80
2019-02-07T09:24:49.261Z,61.70
2019-02-07T09:27:16.614Z,65.27
2019-02-07T09:29:43.311Z,67.03
2019-02-07T09:32:10.100Z,59.00
2019-02-07T09:34:36.829Z,63.00
2019-02-07T09:37:03.581Z,59.98
2019-02-07T09:39:30.428Z,58.42
2019-02-07T09:41:57.250Z,57.05
2019-02-07T09:44:24.106Z,58.95
2019-02-07T09:46:51.250Z,61.50
2019-02-07T09:49:17.985Z,65.25
2019-02-07T09:51:44.838Z,56.68
2019-02-07T09:54:11.577Z,66.70
2019-02-07T09:56:38.302Z,53.30
2019-02-07T09:59:05.050Z,54.60
2019-02-07T10:01:31.795Z,59.80
2019-02-07T10:03:58.621Z,47.78
2019-02-07T10:06:25.362Z,48.08
2019-02-07T10:08:52.100Z,50.60
2019-02-07T10:11:19.043Z,54.35
2019-02-07T10:13:45.793Z,47.15
2019-02-07T10:16:12.626Z,56.83
2019-02-07T10:18:39.362Z,47.88
2019-02-07T10:21:06.102Z,49.20
2019-02-07T10:23:32.948Z,46.55
2019-02-07T10:25:59.686Z,47.62
2019-02-07T10:28:26.536Z,48.02
2019-02-07T10:30:53.397Z,55.67
2019-02-07T10:33:20.224Z,46.68
2019-02-07T10:35:47.060Z,44.38
2019-02-07T10:38:14.006Z,44.60
2019-02-07T10:40:40.844Z,45.52
2019-02-07T10:43:07.679Z,47.62
2019-02-07T10:45:34.426Z,43.63
2019-02-07T10:48:01.268Z,40.92
2019-02-07T10:50:28.119Z,46.83
2019-02-07T10:52:54.955Z,42.88
2019-02-07T10:55:21.682Z,49.25
2019-02-07T10:57:48.405Z,37.58
2019-02-07T11:00:15.580Z,33.95
2019-02-07T11:02:42.311Z,37.00
2019-02-07T11:05:09.153Z,41.35
2019-02-07T11:07:35.901Z,37.63
2019-02-07T11:10:02.742Z,33.75
2019-02-07T11:12:29.469Z,41.23
2019-02-07T11:14:56.219Z,36.93
2019-02-07T11:17:23.052Z,45.48
2019-02-07T11:19:50.576Z,42.23
2019-02-07T11:22:17.358Z,40.40
2019-02-07T11:24:44.200Z,40.08
2019-02-07T11:27:11.123Z,45.35
2019-02-07T11:29:38.283Z,41.20
2019-02-07T11:32:05.032Z,38.20
2019-02-07T11:34:31.763Z,40.93
2019-02-07T11:36:58.718Z,48.17
2019-02-07T11:39:25.445Z,38.00
2019-02-07T11:41:53.453Z,36.50
2019-02-07T11:44:20.155Z,37.40
2019-02-07T11:46:48.791Z,42.13
2019-02-07T11:49:15.268Z,37.93
2019-02-07T11:51:41.965Z,39.70
2019-02-07T11:54:09.093Z,34.77
2019-02-07T11:56:35.803Z,48.73
2019-02-07T11:59:02.650Z,35.03
2019-02-07T12:01:29.489Z,39.90
2019-02-07T12:03:56.181Z,40.63
2019-02-07T12:06:23.057Z,36.98
2019-02-07T12:08:49.807Z,38.60
2019-02-07T12:11:16.651Z,36.30
2019-02-07T12:13:43.377Z,40.40
2019-02-07T12:16:10.120Z,43.60
2019-02-07T12:18:36.960Z,57.38
2019-02-07T12:21:03.707Z,59.18
2019-02-07T12:23:30.455Z,71.75
2019-02-07T12:25:57.177Z,45.37
2019-02-07T12:28:23.945Z,56.37
2019-02-07T12:30:51.067Z,50.67
2019-02-07T12:33:17.807Z,65.13
2019-02-07T12:35:44.564Z,81.07
2019-02-07T12:38:11.284Z,77.30
2019-02-07T12:40:38.023Z,74.33
2019-02-07T12:43:04.864Z,63.70
2019-02-07T12:45:31.577Z,63.43
2019-02-07T12:47:58.345Z,61.83
2019-02-07T12:50:25.300Z,58.40
2019-02-07T12:52:52.038Z,70.10
2019-02-07T12:55:18.881Z,62.47
2019-02-07T12:57:45.608Z,76.30
2019-02-07T13:00:12.346Z,63.83
2019-02-07T13:02:39.200Z,64.47
2019-02-07T13:05:05.937Z,71.67
2019-02-07T13:07:33.079Z,78.03
2019-02-07T13:09:59.815Z,98.67
2019-02-07T13:12:26.615Z,91.07
2019-02-07T13:14:53.444Z,59.27
2019-02-07T13:17:20.248Z,83.10
2019-02-07T13:19:47.082Z,57.10
2019-02-07T13:22:13.829Z,62.33
2019-02-07T13:24:41.089Z,60.20
2019-02-07T13:27:07.811Z,73.37
2019-02-07T13:29:34.779Z,54.23
2019-02-07T13:32:01.721Z,62.77
2019-02-07T13:34:28.441Z,64.07
2019-02-07T13:36:55.193Z,55.07
2019-02-07T13:39:21.917Z,63.53
2019-02-07T13:41:48.654Z,73.23
2019-02-07T13:44:15.598Z,64.00
2019-02-07T13:46:43.449Z,49.40
2019-02-07T13:49:10.205Z,72.23
2019-02-07T13:51:36.953Z,61.67
2019-02-07T13:54:03.692Z,54.33
2019-02-07T13:56:30.607Z,64.47
2019-02-07T13:58:57.479Z,49.58
2019-02-07T14:01:24.615Z,53.23
2019-02-07T14:03:51.368Z,61.42
2019-02-07T14:06:18.110Z,50.20
2019-02-07T14:08:44.947Z,43.83
2019-02-07T14:11:11.676Z,40.00
2019-02-07T14:13:41.042Z,44.70
2019-02-07T14:16:06.792Z,44.03
2019-02-07T14:18:33.544Z,42.70
2019-02-07T14:21:00.373Z,49.80
2019-02-07T14:23:29.796Z,40.00
2019-02-07T14:25:55.504Z,44.15
2019-02-07T14:28:22.345Z,46.65
2019-02-07T14:30:49.072Z,46.25
2019-02-07T14:33:16.050Z,49.27
2019-02-07T14:35:42.757Z,39.00
2019-02-07T14:38:09.690Z,46.77
2019-02-07T14:40:36.450Z,39.30
2019-02-07T14:43:03.297Z,43.83
2019-02-07T14:45:30.135Z,45.80
2019-02-07T14:47:57.076Z,42.83
2019-02-07T14:50:23.810Z,51.27
2019-02-07T14:52:50.542Z,37.10
2019-02-07T14:55:17.594Z,36.77
2019-02-07T14:57:44.432Z,41.23
2019-02-07T15:00:11.188Z,46.47
2019-02-07T15:02:37.920Z,47.27
2019-02-07T15:05:04.761Z,49.20
2019-02-07T15:07:31.545Z,51.07
2019-02-07T15:09:58.293Z,42.17
2019-02-07T15:12:25.102Z,52.47
2019-02-07T15:14:52.323Z,52.27
2019-02-07T15:17:19.206Z,50.13
2019-02-07T15:19:46.028Z,61.67
2019-02-07T15:22:12.867Z,41.87
2019-02-07T15:24:39.594Z,65.03
2019-02-07T15:27:06.432Z,68.57
2019-02-07T15:29:33.382Z,42.40
2019-02-07T15:32:00.125Z,53.33
2019-02-07T15:34:27.170Z,38.93
2019-02-07T15:36:54.574Z,35.37
2019-02-07T15:39:22.275Z,51.53
2019-02-07T15:41:49.026Z,29.37
2019-02-07T15:44:15.971Z,37.87
2019-02-07T15:46:42.801Z,46.43
2019-02-07T15:49:09.545Z,45.93
2019-02-07T15:51:36.391Z,43.57
2019-02-07T15:54:03.337Z,49.73
2019-02-07T15:56:30.178Z,71.23
2019-02-07T15:58:57.008Z,41.90
2019-02-07T16:01:23.757Z,38.70
2019-02-07T16:03:50.497Z,44.13
2019-02-07T16:06:17.328Z,45.17
2019-02-07T16:08:44.075Z,74.47
2019-02-07T16:11:10.917Z,45.03
2019-02-07T16:13:37.864Z,42.57
2019-02-07T16:16:04.602Z,52.47
2019-02-07T16:18:31.361Z,53.53
2019-02-07T16:20:58.187Z,60.10
2019-02-07T16:23:25.031Z,57.97
2019-02-07T16:25:51.754Z,53.03
2019-02-07T16:28:20.312Z,50.37
2019-02-07T16:30:46.977Z,54.70
2019-02-07T16:33:13.724Z,49.10
2019-02-07T16:35:40.569Z,52.73
2019-02-07T16:38:07.294Z,50.13
2019-02-07T16:40:34.036Z,45.07
2019-02-07T16:43:00.875Z,60.87
2019-02-07T16:45:27.623Z,66.23
2019-02-07T16:47:54.365Z,55.97
2019-02-07T16:50:21.195Z,50.83
2019-02-07T16:52:47.933Z,70.53
2019-02-07T16:55:14.675Z,62.57
2019-02-07T16:57:41.526Z,61.73
2019-02-07T17:00:08.253Z,62.77
2019-02-07T17:02:35.072Z,83.67
2019-02-07T17:05:02.143Z,74.17
2019-02-07T17:07:29.188Z,63.30
2019-02-07T17:09:55.941Z,64.23
2019-02-07T17:12:22.788Z,71.63
2019-02-07T17:14:49.627Z,73.93
2019-02-07T17:17:16.352Z,69.13
2019-02-07T17:19:43.203Z,80.80
2019-02-07T17:22:09.943Z,69.50
2019-02-07T17:24:36.677Z,66.83
2019-02-07T17:27:03.720Z,75.90
2019-02-07T17:29:30.459Z,78.70
2019-02-07T17:31:57.203Z,75.93
2019-02-07T17:34:24.051Z,75.57
2019-02-07T17:36:50.777Z,62.17
2019-02-07T17:39:17.531Z,81.53
2019-02-07T17:41:44.371Z,73.50
2019-02-07T17:44:11.113Z,82.20
2019-02-07T17:46:38.147Z,74.13
2019-02-07T17:49:04.989Z,91.50
2019-02-07T17:51:31.739Z,83.33
2019-02-07T17:53:58.467Z,84.00
2019-02-07T17:56:25.414Z,73.07
2019-02-07T17:58:52.156Z,50.43
2019-02-07T18:01:18.897Z,73.07
2019-02-07T18:03:45.729Z,96.50
2019-02-07T18:06:12.793Z,77.93
2019-02-07T18:08:39.528Z,86.60
2019-02-07T18:11:06.776Z,88.37
2019-02-07T18:13:34.238Z,107.00
2019-02-07T18:16:01.068Z,80.50
2019-02-07T18:18:27.857Z,95.17
2019-02-07T18:20:54.659Z,93.10
2019-02-07T18:23:22.320Z,104.43
2019-02-07T18:25:49.158Z,90.67
2019-02-07T18:28:15.888Z,100.27
2019-02-07T18:30:42.635Z,86.20
2019-02-07T18:33:09.485Z,103.10
2019-02-07T18:35:36.207Z,110.87
2019-02-07T18:38:02.963Z,102.30
2019-02-07T18:40:29.705Z,89.80
2019-02-07T18:42:56.546Z,101.00
2019-02-07T18:45:23.390Z,115.67
2019-02-07T18:47:50.267Z,109.17
2019-02-07T18:50:17.135Z,117.80
2019-02-07T18:52:43.970Z,143.93
2019-02-07T18:55:10.776Z,150.10
2019-02-07T18:57:37.581Z,173.70
2019-02-07T19:00:04.541Z,110.50
2019-02-07T19:02:31.311Z,95.70
2019-02-07T19:04:58.213Z,152.53
2019-02-07T19:07:24.961Z,120.97
2019-02-07T19:09:51.682Z,126.10
2019-02-07T19:12:18.430Z,115.53
2019-02-07T19:14:45.494Z,107.77
2019-02-07T19:17:12.424Z,111.07
2019-02-07T19:19:39.172Z,115.07
2019-02-07T19:22:05.894Z,110.53
2019-02-07T19:24:32.942Z,121.00
2019-02-07T19:26:59.678Z,106.40
2019-02-07T19:29:26.628Z,127.97
2019-02-07T19:31:53.377Z,139.50
2019-02-07T19:34:20.309Z,112.83
2019-02-07T19:36:47.059Z,146.97
2019-02-07T19:39:13.989Z,152.57
2019-02-07T19:41:40.728Z,124.77
2019-02-07T19:44:07.468Z,136.93
2019-02-07T19:46:34.208Z,177.07
2019-02-07T19:49:00.948Z,137.93
2019-02-07T19:51:27.688Z,167.07
2019-02-07T19:53:54.437Z,149.47
2019-02-07T19:56:21.175Z,156.47
2019-02-07T19:58:47.917Z,160.10
2019-02-07T20:01:14.643Z,179.30
2019-02-07T20:03:41.472Z,156.17
2019-02-07T20:06:08.224Z,159.77
2019-02-07T20:08:35.184Z,158.33
2019-02-07T20:11:01.915Z,146.73
2019-02-07T20:13:28.652Z,155.87
2019-02-07T20:15:55.655Z,127.10
2019-02-07T20:18:22.600Z,186.73
2019-02-07T20:20:49.378Z,133.13
2019-02-07T20:23:16.532Z,123.17
2019-02-07T20:25:43.597Z,153.90
2019-02-07T20:28:10.423Z,153.23
2019-02-07T20:30:37.364Z,157.77
2019-02-07T20:33:04.232Z,154.93
2019-02-07T20:35:31.336Z,175.03
2019-02-07T20:37:58.088Z,163.03
2019-02-07T20:40:24.827Z,152.43
2019-02-07T20:42:51.593Z,157.40
2019-02-07T20:45:18.980Z,137.00
2019-02-07T20:47:47.115Z,146.40
2019-02-07T20:50:13.945Z,135.03
2019-02-07T20:52:40.673Z,135.20
2019-02-07T20:55:07.429Z,134.77
2019-02-07T20:57:34.476Z,167.27
2019-02-07T21:00:01.299Z,136.03
2019-02-07T21:02:28.450Z,127.67
2019-02-07T21:04:55.216Z,161.27
2019-02-07T21:07:22.245Z,132.83
2019-02-07T21:09:48.999Z,139.00
2019-02-07T21:12:16.037Z,146.33
2019-02-07T21:14:42.872Z,145.90
2019-02-07T21:17:09.631Z,161.93
2019-02-07T21:19:36.455Z,172.00
2019-02-07T21:22:03.183Z,146.40
2019-02-07T21:24:29.933Z,151.00
2019-02-07T21:26:57.288Z,127.40
2019-02-07T21:29:24.420Z,121.97
2019-02-07T21:31:53.537Z,144.30
2019-02-07T21:34:22.968Z,138.00
2019-02-07T21:36:50.331Z,180.17
2019-02-07T21:39:17.140Z,149.73
2019-02-07T21:41:44.199Z,155.27
2019-02-07T21:44:11.108Z,128.10
2019-02-07T21:46:38.677Z,134.00
2019-02-07T21:49:05.415Z,136.13
2019-02-07T21:51:32.550Z,122.50
2019-02-07T21:53:59.751Z,149.03
2019-02-07T21:56:26.662Z,128.10
2019-02-07T21:58:53.692Z,122.33
2019-02-07T22:01:21.248Z,163.43
2019-02-07T22:03:48.068Z,152.57
2019-02-07T22:06:15.181Z,151.13
2019-02-07T22:08:42.011Z,134.30
2019-02-07T22:11:08.838Z,148.63
2019-02-07T22:13:35.776Z,134.40
2019-02-07T22:16:03.353Z,127.67
2019-02-07T22:18:30.067Z,140.07
2019-02-07T22:20:56.838Z,140.77
2019-02-07T22:23:23.722Z,185.73
2019-02-07T22:25:50.849Z,144.27
2019-02-07T22:28:17.635Z,136.63
2019-02-07T22:30:44.379Z,125.20
2019-02-07T22:33:11.121Z,138.60
2019-02-07T22:35:37.864Z,144.87
2019-02-07T22:38:04.593Z,161.20
2019-02-07T22:40:31.341Z,129.60
2019-02-07T22:42:58.182Z,130.83
2019-02-07T22:45:25.335Z,119.43
2019-02-07T22:47:52.072Z,131.33
2019-02-07T22:50:19.021Z,120.43
2019-02-07T22:52:45.857Z,110.77
2019-02-07T22:55:12.595Z,121.90
2019-02-07T22:57:39.429Z,96.83
2019-02-07T23:00:06.168Z,111.17
2019-02-07T23:02:32.939Z,113.47
2019-02-07T23:04:59.884Z,114.17
2019-02-07T23:07:26.883Z,102.77
2019-02-07T23:09:53.679Z,101.90
2019-02-07T23:12:20.498Z,99.57
2019-02-07T23:14:47.231Z,136.23
2019-02-07T23:17:13.957Z,102.90
2019-02-07T23:19:41.216Z,111.77
2019-02-07T23:22:08.221Z,100.70
2019-02-07T23:24:34.993Z,129.37
2019-02-07T23:27:01.751Z,102.00
2019-02-07T23:29:28.486Z,125.27
2019-02-07T23:31:55.216Z,110.50
2019-02-07T23:34:21.950Z,91.20
2019-02-07T23:36:48.699Z,121.70
2019-02-07T23:39:15.447Z,117.20
2019-02-07T23:41:42.285Z,112.47
2019-02-07T23:44:09.116Z,112.83
2019-02-07T23:46:35.859Z,94.70
2019-02-07T23:49:02.558Z,136.57
2019-02-07T23:51:29.329Z,88.83
2019-02-07T23:53:56.069Z,105.07
2019-02-07T23:56:22.819Z,107.23
2019-02-07T23:58:49.664Z,120.73
